createdAt,value
2023-03-07T00:00:30.417Z,34.72
2023-03-07T00:02:58.545Z,35.16
2023-03-07T00:05:26.794Z,34.89
2023-03-07T00:07:54.876Z,34.84
2023-03-07T00:10:22.967Z,35.36
2023-03-07T00:12:51.068Z,35.04
2023-03-07T00:15:19.364Z,34.81
2023-03-07T00:17:48.860Z,35.46
2023-03-07T00:20:17.048Z,34.79
2023-03-07T00:22:46.905Z,35.46
2023-03-07T00:25:15.116Z,35.36
2023-03-07T00:27:43.200Z,34.98
2023-03-07T00:30:12.527Z,35.37
2023-03-07T00:32:40.790Z,34.80
2023-03-07T00:35:10.533Z,34.93
2023-03-07T00:37:38.685Z,35.20
2023-03-07T00:40:08.540Z,35.14
2023-03-07T00:42:36.665Z,35.52
2023-03-07T00:45:05.109Z,35.06
2023-03-07T00:47:33.222Z,34.78
2023-03-07T00:50:01.444Z,34.88
2023-03-07T00:52:30.957Z,35.05
2023-03-07T00:54:59.155Z,34.77
2023-03-07T00:57:27.461Z,35.52
2023-03-07T00:59:55.601Z,35.23
2023-03-07T01:02:23.877Z,35.36
2023-03-07T01:04:52.004Z,34.77
2023-03-07T01:07:20.087Z,35.29
2023-03-07T01:09:53.334Z,34.92
2023-03-07T01:12:21.572Z,34.95
2023-03-07T01:14:51.636Z,35.51
2023-03-07T01:17:19.926Z,35.20
2023-03-07T01:19:48.017Z,35.52
2023-03-07T01:22:16.344Z,35.53
2023-03-07T01:24:44.436Z,35.58
2023-03-07T01:27:14.039Z,34.79
2023-03-07T01:29:42.200Z,34.89
2023-03-07T01:32:10.467Z,34.78
2023-03-07T01:34:38.737Z,35.48
2023-03-07T01:37:06.921Z,35.40
2023-03-07T01:39:35.184Z,35.36
2023-03-07T01:42:07.314Z,35.51
2023-03-07T01:45:01.394Z,35.14
2023-03-07T01:47:39.132Z,35.50
2023-03-07T01:50:09.062Z,35.23
2023-03-07T01:52:38.020Z,35.11
2023-03-07T01:55:12.319Z,35.36
2023-03-07T01:57:42.553Z,34.89
2023-03-07T02:00:14.407Z,35.50
2023-03-07T02:02:43.332Z,35.51
2023-03-07T02:05:15.058Z,34.92
2023-03-07T02:07:46.035Z,35.51
2023-03-07T02:10:15.197Z,34.76
2023-03-07T02:12:43.391Z,34.73
2023-03-07T02:15:14.518Z,35.04
2023-03-07T02:17:42.882Z,34.83
2023-03-07T02:20:23.607Z,35.22
2023-03-07T02:22:51.771Z,35.21
2023-03-07T02:25:21.274Z,35.32
2023-03-07T02:27:50.896Z,35.03
2023-03-07T02:30:19.232Z,35.32
2023-03-07T02:32:47.847Z,35.59
2023-03-07T02:35:17.314Z,34.90
2023-03-07T02:37:47.631Z,34.77
2023-03-07T02:40:19.373Z,35.17
2023-03-07T02:42:47.989Z,34.87
2023-03-07T02:45:18.989Z,34.83
2023-03-07T02:47:47.436Z,35.12
2023-03-07T02:50:18.225Z,35.14
2023-03-07T02:52:51.182Z,35.45
2023-03-07T02:55:19.646Z,35.08
2023-03-07T02:57:53.826Z,35.46
2023-03-07T03:00:24.192Z,35.27
2023-03-07T03:02:52.865Z,35.17
2023-03-07T03:05:21.584Z,35.12
2023-03-07T03:07:52.909Z,34.77
2023-03-07T03:10:21.105Z,34.87
2023-03-07T03:12:49.201Z,34.84
2023-03-07T03:15:17.912Z,34.93
2023-03-07T03:17:48.437Z,34.77
2023-03-07T03:20:17.110Z,34.83
2023-03-07T03:22:45.218Z,34.91
2023-03-07T03:25:14.945Z,35.04
2023-03-07T03:27:45.031Z,34.84
2023-03-07T03:30:14.151Z,35.29
2023-03-07T03:32:43.752Z,35.45
2023-03-07T03:35:16.139Z,35.34
2023-03-07T03:37:45.051Z,34.81
2023-03-07T03:40:17.406Z,34.76
2023-03-07T03:42:46.856Z,34.79
2023-03-07T03:45:17.324Z,35.46
2023-03-07T03:47:45.478Z,35.30
2023-03-07T03:50:15.400Z,34.67
2023-03-07T03:52:45.370Z,35.11
2023-03-07T03:55:13.938Z,35.17
2023-03-07T03:57:42.191Z,35.41
2023-03-07T04:00:14.478Z,35.23
2023-03-07T04:02:42.971Z,34.77
2023-03-07T04:05:17.084Z,35.47
2023-03-07T04:07:45.251Z,35.12
2023-03-07T04:10:13.417Z,35.07
2023-03-07T04:12:41.597Z,34.78
2023-03-07T04:15:10.338Z,34.69
2023-03-07T04:17:39.579Z,35.28
2023-03-07T04:20:14.268Z,35.54
2023-03-07T04:22:44.012Z,35.11
2023-03-07T04:25:12.857Z,35.31
2023-03-07T04:27:41.021Z,34.89
2023-03-07T04:30:10.952Z,34.80
2023-03-07T04:32:39.845Z,35.11
2023-03-07T04:35:08.472Z,35.00
2023-03-07T04:37:36.562Z,34.87
2023-03-07T04:40:06.981Z,34.77
2023-03-07T04:42:36.064Z,35.52
2023-03-07T04:45:04.924Z,35.52
2023-03-07T04:47:33.143Z,34.95
2023-03-07T04:50:01.287Z,34.74
2023-03-07T04:52:30.787Z,34.79
2023-03-07T04:54:58.916Z,35.37
2023-03-07T04:57:28.495Z,35.11
2023-03-07T04:59:56.876Z,34.96
2023-03-07T05:02:25.106Z,35.50
2023-03-07T05:04:54.141Z,35.48
2023-03-07T05:07:22.991Z,35.36
2023-03-07T05:09:52.322Z,35.39
2023-03-07T05:12:21.079Z,35.51
2023-03-07T05:14:50.554Z,35.03
2023-03-07T05:17:18.673Z,34.84
2023-03-07T05:19:46.952Z,35.47
2023-03-07T05:22:15.336Z,35.58
2023-03-07T05:24:44.760Z,34.94
2023-03-07T05:27:12.971Z,34.88
2023-03-07T05:29:41.060Z,35.16
2023-03-07T05:32:11.370Z,35.44
2023-03-07T05:34:40.484Z,34.93
2023-03-07T05:37:09.701Z,35.58
2023-03-07T05:39:38.217Z,35.08
2023-03-07T05:42:06.689Z,35.44
2023-03-07T05:44:36.038Z,34.90
2023-03-07T05:47:05.840Z,35.05
2023-03-07T05:49:36.077Z,35.71
2023-03-07T05:52:04.535Z,35.68
2023-03-07T05:54:32.759Z,34.81
2023-03-07T05:57:01.061Z,34.86
2023-03-07T05:59:29.136Z,35.50
2023-03-07T06:01:57.329Z,35.43
2023-03-07T06:04:25.547Z,35.47
2023-03-07T06:06:55.149Z,35.62
2023-03-07T06:09:23.662Z,35.09
2023-03-07T06:11:52.371Z,34.93
2023-03-07T06:14:20.976Z,35.63
2023-03-07T06:16:49.072Z,34.97
2023-03-07T06:19:17.467Z,34.84
2023-03-07T06:21:45.742Z,35.20
2023-03-07T06:24:15.412Z,35.62
2023-03-07T06:26:44.576Z,35.67
2023-03-07T06:29:13.339Z,35.41
2023-03-07T06:31:41.741Z,35.43
2023-03-07T06:34:09.952Z,35.57
2023-03-07T06:36:38.194Z,35.32
2023-03-07T06:39:06.336Z,34.94
2023-03-07T06:41:37.402Z,35.03
2023-03-07T06:44:06.600Z,34.99
2023-03-07T06:46:35.439Z,35.46
2023-03-07T06:49:09.065Z,35.38
2023-03-07T06:51:38.102Z,35.51
2023-03-07T06:54:06.971Z,35.58
2023-03-07T06:56:36.999Z,35.70
2023-03-07T06:59:05.305Z,35.55
2023-03-07T07:01:35.605Z,35.39
2023-03-07T07:04:04.207Z,34.75
2023-03-07T07:06:32.402Z,34.81
2023-03-07T07:09:00.615Z,34.88
2023-03-07T07:11:33.765Z,35.50
2023-03-07T07:14:04.689Z,34.80
2023-03-07T07:16:36.307Z,34.80
2023-03-07T07:19:04.747Z,35.32
2023-03-07T07:21:33.213Z,35.42
2023-03-07T07:24:01.711Z,35.36
2023-03-07T07:26:30.192Z,35.53
2023-03-07T07:29:00.520Z,35.53
2023-03-07T07:31:30.339Z,34.87
2023-03-07T07:33:58.763Z,35.08
2023-03-07T07:36:29.237Z,35.41
2023-03-07T07:38:57.445Z,35.72
2023-03-07T07:41:25.790Z,35.66
2023-03-07T07:43:56.535Z,35.89
2023-03-07T07:46:35.460Z,35.79
2023-03-07T07:49:04.581Z,35.90
2023-03-07T07:51:33.872Z,35.57
2023-03-07T07:54:02.093Z,35.45
2023-03-07T07:56:30.242Z,35.47
2023-03-07T07:58:58.331Z,36.12
2023-03-07T08:01:26.469Z,35.43
2023-03-07T08:03:55.936Z,35.46
2023-03-07T08:06:25.067Z,35.45
2023-03-07T08:08:53.251Z,36.14
2023-03-07T08:11:21.637Z,35.89
2023-03-07T08:13:49.736Z,35.76
2023-03-07T08:16:18.596Z,35.49
2023-03-07T08:18:49.574Z,35.65
2023-03-07T08:21:19.117Z,35.50
2023-03-07T08:23:47.206Z,36.23
2023-03-07T08:26:15.304Z,35.85
2023-03-07T08:28:43.517Z,36.33
2023-03-07T08:31:12.518Z,36.31
2023-03-07T08:33:40.629Z,35.35
2023-03-07T08:36:09.273Z,35.38
2023-03-07T08:38:38.758Z,35.07
2023-03-07T08:41:08.166Z,35.04
2023-03-07T08:43:37.417Z,35.10
2023-03-07T08:46:05.769Z,34.83
2023-03-07T08:48:33.918Z,35.04
2023-03-07T08:51:05.846Z,34.48
2023-03-07T08:53:34.029Z,35.12
2023-03-07T08:56:07.205Z,34.89
2023-03-07T08:58:35.419Z,35.28
2023-03-07T09:01:03.705Z,34.79
2023-03-07T09:03:31.873Z,35.13
2023-03-07T09:05:59.953Z,35.32
2023-03-07T09:08:28.118Z,34.83
2023-03-07T09:10:56.968Z,35.52
2023-03-07T09:13:26.513Z,35.09
2023-03-07T09:15:54.627Z,34.78
2023-03-07T09:18:23.633Z,35.47
2023-03-07T09:20:51.736Z,35.24
2023-03-07T09:23:19.860Z,35.49
2023-03-07T09:25:47.932Z,34.89
2023-03-07T09:28:16.021Z,35.24
2023-03-07T09:30:45.452Z,35.41
2023-03-07T09:33:13.548Z,35.71
2023-03-07T09:35:41.636Z,36.01
2023-03-07T09:38:10.719Z,35.97
2023-03-07T09:40:39.250Z,35.78
2023-03-07T09:43:10.390Z,35.17
2023-03-07T09:45:47.909Z,35.26
2023-03-07T09:48:56.108Z,35.18
2023-03-07T09:51:26.420Z,36.01
2023-03-07T09:53:57.105Z,35.67
2023-03-07T09:56:26.338Z,36.05
2023-03-07T09:58:59.265Z,35.76
2023-03-07T10:01:30.256Z,35.68
2023-03-07T10:04:01.353Z,36.25
2023-03-07T10:06:31.677Z,35.58
2023-03-07T10:08:59.787Z,35.87
2023-03-07T10:11:32.480Z,35.31
2023-03-07T10:14:19.374Z,33.40
2023-03-07T10:16:50.818Z,33.51
2023-03-07T10:19:23.500Z,33.06
2023-03-07T10:21:54.242Z,34.20
2023-03-07T10:24:33.723Z,34.43
2023-03-07T10:27:04.389Z,33.96
2023-03-07T10:29:36.238Z,34.64
2023-03-07T10:32:14.034Z,34.08
2023-03-07T10:34:42.144Z,34.57
2023-03-07T10:37:13.922Z,34.79
2023-03-07T10:39:43.662Z,34.53
2023-03-07T10:42:12.317Z,34.98
2023-03-07T10:44:40.583Z,34.82
2023-03-07T10:47:11.270Z,34.56
2023-03-07T10:49:41.752Z,34.67
2023-03-07T10:52:17.605Z,34.75
2023-03-07T10:54:45.754Z,34.43
2023-03-07T10:57:14.860Z,34.67
2023-03-07T10:59:44.894Z,35.17
2023-03-07T11:02:40.376Z,35.33
2023-03-07T11:05:21.729Z,34.84
2023-03-07T11:07:49.932Z,34.56
2023-03-07T11:10:31.161Z,34.56
2023-03-07T11:12:59.269Z,35.26
2023-03-07T11:15:27.681Z,35.27
2023-03-07T11:17:57.179Z,34.75
2023-03-07T11:20:28.076Z,35.05
2023-03-07T11:23:14.712Z,35.39
2023-03-07T11:25:42.853Z,34.73
2023-03-07T11:28:26.292Z,34.96
2023-03-07T11:30:54.976Z,34.98
2023-03-07T11:33:26.138Z,35.37
2023-03-07T11:36:00.255Z,35.41
2023-03-07T11:38:42.818Z,35.46
2023-03-07T11:41:12.565Z,35.27
2023-03-07T11:43:46.315Z,34.99
2023-03-07T11:46:17.207Z,35.01
2023-03-07T11:48:53.444Z,35.62
2023-03-07T11:51:31.980Z,35.51
2023-03-07T11:54:04.792Z,35.22
2023-03-07T11:56:34.671Z,35.70
2023-03-07T11:59:45.631Z,35.55
2023-03-07T12:02:35.148Z,35.52
2023-03-07T12:05:11.220Z,35.72
2023-03-07T12:07:49.108Z,35.55
2023-03-07T12:10:38.231Z,36.01
2023-03-07T12:13:12.501Z,35.36
2023-03-07T12:15:41.763Z,35.42
2023-03-07T12:18:24.241Z,35.85
2023-03-07T12:20:57.185Z,36.14
2023-03-07T12:23:26.766Z,35.84
2023-03-07T12:25:55.737Z,35.85
2023-03-07T12:28:25.400Z,35.70
2023-03-07T12:31:00.615Z,36.18
2023-03-07T12:33:36.495Z,35.82
2023-03-07T12:36:07.863Z,35.54
2023-03-07T12:38:38.473Z,35.47
2023-03-07T12:41:12.524Z,36.19
2023-03-07T12:43:41.811Z,35.98
2023-03-07T12:46:13.022Z,35.51
2023-03-07T12:48:43.917Z,35.72
2023-03-07T12:51:18.818Z,36.16
2023-03-07T12:53:49.165Z,35.99
2023-03-07T12:56:19.722Z,35.87
2023-03-07T12:58:49.003Z,35.79
2023-03-07T13:01:18.879Z,36.12
2023-03-07T13:03:50.854Z,35.98
2023-03-07T13:06:21.059Z,35.57
2023-03-07T13:08:50.026Z,36.12
2023-03-07T13:11:19.617Z,35.94
2023-03-07T13:13:53.323Z,36.18
2023-03-07T13:16:44.115Z,35.79
2023-03-07T13:19:49.339Z,35.72
2023-03-07T13:22:55.008Z,36.37
2023-03-07T13:25:59.059Z,35.60
2023-03-07T13:28:54.114Z,36.35
2023-03-07T13:31:45.938Z,35.52
2023-03-07T13:34:53.167Z,35.48
2023-03-07T13:37:51.980Z,36.13
2023-03-07T13:40:39.781Z,35.97
2023-03-07T13:43:59.777Z,35.48
2023-03-07T13:46:51.848Z,35.82
2023-03-07T13:49:47.689Z,35.85
2023-03-07T13:52:36.655Z,36.35
2023-03-07T13:55:06.193Z,35.89
2023-03-07T13:57:39.916Z,36.23
2023-03-07T14:00:23.708Z,36.33
2023-03-07T14:02:53.454Z,36.14
2023-03-07T14:05:21.583Z,36.13
2023-03-07T14:07:51.678Z,36.19
2023-03-07T14:10:23.572Z,36.03
2023-03-07T14:13:26.428Z,35.82
2023-03-07T14:16:12.597Z,36.16
2023-03-07T14:18:49.673Z,35.91
2023-03-07T14:21:22.879Z,36.65
2023-03-07T14:24:13.072Z,36.45
2023-03-07T14:26:42.598Z,36.50
2023-03-07T14:29:16.918Z,36.41
2023-03-07T14:31:46.967Z,36.47
2023-03-07T14:34:19.664Z,36.42
2023-03-07T14:36:48.228Z,36.24
2023-03-07T14:39:16.356Z,36.24
2023-03-07T14:41:47.359Z,36.46
2023-03-07T14:44:33.118Z,36.67
2023-03-07T14:47:08.531Z,36.85
2023-03-07T14:49:38.845Z,36.57
2023-03-07T14:52:06.984Z,36.64
2023-03-07T14:54:35.603Z,36.05
2023-03-07T14:57:04.184Z,36.21
2023-03-07T14:59:32.262Z,36.35
2023-03-07T15:02:00.515Z,35.99
2023-03-07T15:04:30.669Z,36.03
2023-03-07T15:06:59.549Z,36.63
2023-03-07T15:09:27.680Z,36.39
2023-03-07T15:11:59.445Z,36.63
2023-03-07T15:14:33.532Z,36.88
2023-03-07T15:17:03.284Z,36.56
2023-03-07T15:19:34.185Z,36.68
2023-03-07T15:22:03.172Z,36.76
2023-03-07T15:24:33.504Z,37.01
2023-03-07T15:27:01.608Z,36.38
2023-03-07T15:29:30.720Z,36.83
2023-03-07T15:31:59.823Z,36.73
2023-03-07T15:34:28.975Z,37.01
2023-03-07T15:37:22.557Z,36.78
2023-03-07T15:39:57.237Z,37.01
2023-03-07T15:42:25.312Z,36.68
2023-03-07T15:44:56.826Z,36.84
2023-03-07T15:47:25.357Z,36.68
2023-03-07T15:49:55.214Z,35.30
2023-03-07T15:52:28.571Z,34.82
2023-03-07T15:54:57.400Z,35.65
2023-03-07T15:57:26.287Z,35.80
2023-03-07T15:59:57.900Z,35.90
2023-03-07T16:02:40.436Z,35.70
2023-03-07T16:05:24.043Z,35.89
2023-03-07T16:07:54.059Z,35.50
2023-03-07T16:10:22.465Z,36.11
2023-03-07T16:12:50.571Z,35.44
2023-03-07T16:15:19.831Z,35.99
2023-03-07T16:17:48.670Z,35.78
2023-03-07T16:20:17.157Z,35.92
2023-03-07T16:22:47.140Z,35.74
2023-03-07T16:25:16.778Z,35.48
2023-03-07T16:27:45.685Z,35.60
2023-03-07T16:30:15.717Z,35.26
2023-03-07T16:32:43.950Z,35.57
2023-03-07T16:35:15.878Z,35.58
2023-03-07T16:37:44.038Z,35.33
2023-03-07T16:40:13.228Z,35.54
2023-03-07T16:42:44.524Z,35.76
2023-03-07T16:45:19.556Z,35.84
2023-03-07T16:47:47.957Z,35.63
2023-03-07T16:50:17.100Z,36.00
2023-03-07T16:52:45.461Z,35.49
2023-03-07T16:55:14.397Z,35.61
2023-03-07T16:57:44.207Z,35.82
2023-03-07T17:00:17.328Z,35.40
2023-03-07T17:02:46.120Z,35.14
2023-03-07T17:05:18.215Z,35.43
2023-03-07T17:07:46.571Z,35.44
2023-03-07T17:10:15.011Z,35.79
2023-03-07T17:12:44.694Z,35.28
2023-03-07T17:15:14.150Z,36.00
2023-03-07T17:17:42.314Z,35.33
2023-03-07T17:20:13.824Z,35.78
2023-03-07T17:22:41.955Z,35.23
2023-03-07T17:25:10.031Z,35.44
2023-03-07T17:27:38.957Z,35.57
2023-03-07T17:30:09.257Z,35.21
2023-03-07T17:32:37.402Z,35.41
2023-03-07T17:35:08.147Z,35.63
2023-03-07T17:37:36.298Z,35.14
2023-03-07T17:40:10.060Z,35.22
2023-03-07T17:42:38.285Z,35.38
2023-03-07T17:45:08.877Z,35.65
2023-03-07T17:47:37.112Z,35.11
2023-03-07T17:50:06.337Z,35.31
2023-03-07T17:52:34.505Z,35.73
2023-03-07T17:55:02.669Z,35.70
2023-03-07T17:57:30.817Z,34.93
2023-03-07T17:59:58.948Z,35.08
2023-03-07T18:02:28.487Z,35.45
2023-03-07T18:04:56.612Z,35.19
2023-03-07T18:07:24.904Z,35.30
2023-03-07T18:10:05.801Z,35.37
2023-03-07T18:12:35.891Z,35.43
2023-03-07T18:15:05.229Z,35.32
2023-03-07T18:17:46.976Z,35.14
2023-03-07T18:20:15.941Z,35.25
2023-03-07T18:22:44.190Z,35.37
2023-03-07T18:25:13.826Z,34.97
2023-03-07T18:27:41.965Z,34.84
2023-03-07T18:30:11.927Z,34.97
2023-03-07T18:32:41.531Z,35.13
2023-03-07T18:35:10.296Z,35.01
2023-03-07T18:37:38.459Z,35.53
2023-03-07T18:40:07.847Z,35.25
2023-03-07T18:42:36.124Z,35.25
2023-03-07T18:45:04.329Z,35.50
2023-03-07T18:47:32.460Z,34.81
2023-03-07T18:50:01.984Z,35.16
2023-03-07T18:52:30.100Z,35.02
2023-03-07T18:54:58.222Z,34.91
2023-03-07T18:57:26.400Z,34.80
2023-03-07T18:59:54.603Z,35.06
2023-03-07T19:02:23.011Z,34.95
2023-03-07T19:04:51.442Z,34.91
2023-03-07T19:07:20.897Z,34.83
2023-03-07T19:09:53.317Z,35.01
2023-03-07T19:12:21.497Z,35.11
2023-03-07T19:14:49.600Z,34.55
2023-03-07T19:17:17.777Z,35.27
2023-03-07T19:19:46.939Z,34.86
2023-03-07T19:22:15.067Z,35.50
2023-03-07T19:24:44.834Z,34.91
2023-03-07T19:27:12.974Z,35.64
2023-03-07T19:29:41.044Z,35.46
2023-03-07T19:32:09.352Z,35.63
2023-03-07T19:34:37.496Z,35.52
2023-03-07T19:37:05.736Z,36.16
2023-03-07T19:39:34.218Z,36.24
2023-03-07T19:42:04.453Z,36.50
2023-03-07T19:44:32.568Z,36.27
2023-03-07T19:47:00.687Z,36.82
2023-03-07T19:49:28.787Z,36.33
2023-03-07T19:51:56.867Z,36.95
2023-03-07T19:54:24.997Z,36.84
2023-03-07T19:56:53.201Z,36.23
2023-03-07T19:59:25.363Z,36.29
2023-03-07T20:01:53.525Z,36.68
2023-03-07T20:04:21.662Z,36.30
2023-03-07T20:06:49.804Z,36.12
2023-03-07T20:09:18.431Z,36.86
2023-03-07T20:11:46.876Z,36.43
2023-03-07T20:14:15.163Z,36.50
2023-03-07T20:16:44.691Z,36.93
2023-03-07T20:19:12.821Z,36.62
2023-03-07T20:21:42.484Z,36.63
2023-03-07T20:24:10.592Z,36.48
2023-03-07T20:26:39.406Z,36.48
2023-03-07T20:29:07.839Z,36.48
2023-03-07T20:31:36.340Z,36.65
2023-03-07T20:34:05.904Z,36.10
2023-03-07T20:36:34.950Z,36.25
2023-03-07T20:39:04.178Z,36.91
2023-03-07T20:41:33.000Z,36.83
2023-03-07T20:44:02.452Z,36.24
2023-03-07T20:46:31.218Z,36.62
2023-03-07T20:48:59.912Z,36.64
2023-03-07T20:51:30.078Z,36.49
2023-03-07T20:53:58.900Z,36.93
2023-03-07T20:56:27.515Z,36.51
2023-03-07T20:58:55.942Z,36.45
2023-03-07T21:01:24.699Z,36.44
2023-03-07T21:03:53.888Z,36.83
2023-03-07T21:06:22.042Z,36.41
2023-03-07T21:08:51.572Z,36.14
2023-03-07T21:11:20.640Z,36.09
2023-03-07T21:13:49.442Z,36.58
2023-03-07T21:16:18.379Z,36.37
2023-03-07T21:18:46.495Z,36.84
2023-03-07T21:21:15.523Z,36.25
2023-03-07T21:23:43.689Z,36.64
2023-03-07T21:26:14.072Z,36.69
2023-03-07T21:28:42.263Z,36.34
2023-03-07T21:31:16.701Z,36.29
2023-03-07T21:33:45.623Z,36.12
2023-03-07T21:36:14.561Z,36.52
2023-03-07T21:38:42.859Z,36.63
2023-03-07T21:41:12.449Z,36.37
2023-03-07T21:43:40.552Z,36.56
2023-03-07T21:46:09.379Z,36.57
2023-03-07T21:48:37.562Z,36.57
2023-03-07T21:51:05.969Z,35.97
2023-03-07T21:53:34.052Z,36.63
2023-03-07T21:56:02.966Z,36.65
2023-03-07T21:58:32.608Z,36.10
2023-03-07T22:01:00.772Z,36.53
2023-03-07T22:03:29.342Z,36.81
2023-03-07T22:05:57.625Z,36.14
2023-03-07T22:08:25.712Z,36.57
2023-03-07T22:10:57.461Z,36.24
2023-03-07T22:13:25.561Z,36.38
2023-03-07T22:15:58.402Z,36.70
2023-03-07T22:18:26.602Z,36.64
2023-03-07T22:20:55.195Z,35.80
2023-03-07T22:23:23.430Z,36.51
2023-03-07T22:25:51.493Z,36.13
2023-03-07T22:28:19.663Z,36.16
2023-03-07T22:30:49.318Z,36.46
2023-03-07T22:33:18.911Z,36.52
2023-03-07T22:35:58.091Z,36.18
2023-03-07T22:38:26.399Z,36.04
2023-03-07T22:40:54.485Z,36.46
2023-03-07T22:43:22.617Z,36.52
2023-03-07T22:45:52.051Z,36.15
2023-03-07T22:48:21.554Z,36.64
2023-03-07T22:50:49.633Z,36.19
2023-03-07T22:53:17.741Z,36.19
2023-03-07T22:55:45.832Z,36.20
2023-03-07T22:58:13.997Z,36.32
2023-03-07T23:00:42.788Z,35.83
2023-03-07T23:03:11.048Z,36.09
2023-03-07T23:05:40.541Z,35.99
2023-03-07T23:08:08.659Z,36.58
2023-03-07T23:10:36.750Z,36.18
2023-03-07T23:13:04.901Z,36.44
2023-03-07T23:15:33.086Z,35.87
2023-03-07T23:18:01.255Z,36.50
2023-03-07T23:20:30.270Z,36.03
2023-03-07T23:22:59.732Z,36.47
2023-03-07T23:25:27.789Z,35.68
2023-03-07T23:27:56.082Z,36.36
2023-03-07T23:30:24.706Z,36.32
2023-03-07T23:32:52.782Z,36.43
2023-03-07T23:35:20.889Z,36.51
2023-03-07T23:37:49.060Z,35.96
2023-03-07T23:40:18.754Z,35.87
2023-03-07T23:42:46.874Z,35.80
2023-03-07T23:45:14.998Z,36.52
2023-03-07T23:47:43.147Z,36.15
2023-03-07T23:50:12.398Z,35.87
2023-03-07T23:52:40.503Z,35.70
2023-03-07T23:55:09.599Z,36.08
2023-03-07T23:57:39.315Z,36.17
